Time;durP1;ratioP1;P1;durP2;ratioP2;P2;SDS_P1;SDS_P2;PMS_P1;PMS_P2;Temp;Humidity;BMP_temperature;BMP_pressure;BME280_temperature;BME280_humidity;BME280_pressure;Samples;Min_cycle;Max_cycle;Signal;HPM_P1;HPM_P2
2021/12/26 00:00:27;;;;;;;18.48;10.48;;;;;;;3.52;90.46;95311.72;5032146;28;20045;-72
2021/12/26 00:02:54;;;;;;;14.07;9.68;;;;;;;3.51;90.35;95310.91;5032544;28;20503;-72
2021/12/26 00:05:23;;;;;;;14.90;9.80;;;;;;;3.51;89.70;95307.44;5032385;28;20045;-76
2021/12/26 00:07:50;;;;;;;13.30;8.65;;;;;;;3.47;89.52;95311.81;5032303;28;20560;-74
2021/12/26 00:10:20;;;;;;;16.80;9.75;;;;;;;3.44;89.61;95309.69;5032303;28;20045;-74
2021/12/26 00:12:47;;;;;;;13.85;9.93;;;;;;;3.40;89.58;95315.69;5032358;28;20052;-74
2021/12/26 00:15:14;;;;;;;15.85;9.80;;;;;;;3.38;89.66;95314.38;5032304;28;20049;-73
2021/12/26 00:17:41;;;;;;;14.77;9.57;;;;;;;3.33;89.69;95319.84;5032399;28;20045;-73
2021/12/26 00:20:11;;;;;;;14.50;9.57;;;;;;;3.31;89.87;95309.41;5031996;28;20041;-73
2021/12/26 00:22:40;;;;;;;13.63;9.25;;;;;;;3.28;89.62;95315.34;5032264;28;20045;-73
2021/12/26 00:25:08;;;;;;;13.43;9.25;;;;;;;3.23;89.33;95309.28;5031919;28;20046;-72
2021/12/26 00:27:35;;;;;;;16.75;10.55;;;;;;;3.22;89.50;95308.47;5031825;28;20053;-73
2021/12/26 00:30:02;;;;;;;15.05;10.35;;;;;;;3.20;89.69;95305.28;5031682;28;20049;-71
2021/12/26 00:32:28;;;;;;;15.63;10.43;;;;;;;3.23;89.76;95310.06;5031931;28;20053;-73
2021/12/26 00:34:55;;;;;;;15.90;10.27;;;;;;;3.26;89.96;95297.94;5030616;28;20057;-73
2021/12/26 00:37:21;;;;;;;14.60;9.60;;;;;;;3.25;89.71;95302.53;5031524;28;20405;-73
2021/12/26 00:39:49;;;;;;;15.10;9.68;;;;;;;3.22;89.55;95308.47;5031934;28;20055;-73
2021/12/26 00:42:15;;;;;;;13.27;9.40;;;;;;;3.20;89.49;95313.38;5031360;28;20041;-72
2021/12/26 00:44:42;;;;;;;13.77;8.82;;;;;;;3.21;88.96;95312.28;5032075;28;20048;-73
2021/12/26 00:47:10;;;;;;;14.43;8.63;;;;;;;3.20;88.86;95320.66;5031368;28;20041;-73
2021/12/26 00:49:37;;;;;;;15.43;9.20;;;;;;;3.15;88.79;95321.53;5031770;28;20057;-73
2021/12/26 00:52:05;;;;;;;14.52;8.88;;;;;;;3.12;88.63;95316.72;5031357;28;20456;-73
2021/12/26 00:54:32;;;;;;;14.63;8.82;;;;;;;3.10;88.52;95319.72;5031583;28;20115;-73
2021/12/26 00:57:01;;;;;;;13.18;8.70;;;;;;;3.12;88.52;95324.78;5031651;28;20045;-73
2021/12/26 00:59:28;;;;;;;14.15;8.63;;;;;;;3.11;88.32;95318.63;5031288;28;20045;-73
2021/12/26 01:01:55;;;;;;;13.32;8.40;;;;;;;3.10;88.07;95318.94;5031670;28;20058;-73
2021/12/26 01:04:22;;;;;;;15.73;9.55;;;;;;;3.09;87.97;95320.03;5031024;28;20049;-73
2021/12/26 01:06:50;;;;;;;14.57;8.75;;;;;;;3.08;88.06;95323.78;5031420;28;20042;-73
2021/12/26 01:09:22;;;;;;;13.45;8.68;;;;;;;2.99;87.51;95330.97;5030581;28;20532;-73
2021/12/26 01:11:53;;;;;;;14.75;9.65;;;;;;;2.93;87.86;95332.13;5031298;28;20057;-73
2021/12/26 01:14:27;;;;;;;14.32;9.18;;;;;;;2.92;88.25;95336.69;5030896;28;20578;-73
2021/12/26 01:17:02;;;;;;;14.32;9.25;;;;;;;2.90;88.33;95338.09;5031539;28;20133;-73
2021/12/26 01:19:34;;;;;;;15.98;9.48;;;;;;;2.89;88.49;95337.28;5031047;28;20046;-73
2021/12/26 01:22:01;;;;;;;17.67;10.02;;;;;;;2.89;88.57;95342.66;5031002;28;20059;-73
2021/12/26 01:24:27;;;;;;;16.58;10.32;;;;;;;2.85;88.22;95341.66;5031225;28;20042;-73
2021/12/26 01:26:54;;;;;;;15.40;9.70;;;;;;;2.83;88.48;95339.28;5031094;28;20045;-74
2021/12/26 01:29:21;;;;;;;17.00;9.85;;;;;;;2.82;88.50;95337.69;5030732;28;20041;-73
2021/12/26 01:31:48;;;;;;;13.88;8.88;;;;;;;2.81;88.46;95336.06;5031043;28;20503;-73
2021/12/26 01:34:14;;;;;;;13.95;8.57;;;;;;;2.78;88.08;95333.97;5030575;28;20056;-73
2021/12/26 01:36:41;;;;;;;13.48;8.63;;;;;;;2.71;88.15;95335.41;5031199;28;20496;-73
2021/12/26 01:39:09;;;;;;;13.52;8.82;;;;;;;2.63;88.16;95336.91;5030670;28;20053;-73
2021/12/26 01:41:40;;;;;;;12.95;7.93;;;;;;;2.56;88.37;95341.84;5030772;28;20069;-73
2021/12/26 01:44:10;;;;;;;13.15;8.13;;;;;;;2.50;88.27;95329.56;5030635;28;20121;-73
2021/12/26 01:46:39;;;;;;;13.57;8.55;;;;;;;2.51;88.67;95336.56;5031290;28;20046;-72
2021/12/26 01:49:08;;;;;;;12.40;8.15;;;;;;;2.53;88.86;95339.72;5030556;28;20468;-73
2021/12/26 01:51:35;;;;;;;13.60;8.98;;;;;;;2.49;88.61;95336.81;5030922;28;20050;-73
2021/12/26 01:54:05;;;;;;;14.45;8.82;;;;;;;2.40;88.55;95341.25;5030634;28;20054;-72
2021/12/26 01:56:32;;;;;;;14.73;8.82;;;;;;;2.42;88.45;95330.22;5030907;28;20546;-73
2021/12/26 01:58:59;;;;;;;14.05;8.27;;;;;;;2.34;88.12;95343.22;5030833;28;20057;-73
2021/12/26 02:01:25;;;;;;;12.80;8.65;;;;;;;2.32;88.46;95339.22;5030449;28;20534;-73
2021/12/26 02:03:54;;;;;;;12.95;8.38;;;;;;;2.29;88.76;95343.28;5030938;28;20058;-72
2021/12/26 02:06:21;;;;;;;13.73;8.55;;;;;;;2.28;88.58;95341.69;5030556;28;20132;-73
2021/12/26 02:08:47;;;;;;;13.57;8.27;;;;;;;2.29;88.68;95343.28;5030911;28;20049;-72
2021/12/26 02:11:14;;;;;;;13.30;8.27;;;;;;;2.27;88.73;95340.09;5030519;28;20053;-72
2021/12/26 02:13:41;;;;;;;13.18;7.95;;;;;;;2.23;88.63;95347.13;5030623;28;20049;-72
2021/12/26 02:16:08;;;;;;;11.90;7.50;;;;;;;2.16;88.48;95344.00;5030832;28;20389;-72
2021/12/26 02:18:35;;;;;;;10.75;7.25;;;;;;;2.18;88.52;95349.09;5030691;28;20408;-73
2021/12/26 02:21:14;;;;;;;15.30;8.10;;;;;;;2.16;88.63;95344.00;5030454;28;20042;-72
2021/12/26 02:23:47;;;;;;;13.85;8.30;;;;;;;2.16;88.60;95335.94;5034480;28;20045;-73
2021/12/26 02:28:58;;;;;;;13.63;7.97;;;;;;;2.13;88.58;95328.47;5034599;28;20527;-73
2021/12/26 02:31:25;;;;;;;14.05;7.93;;;;;;;2.09;88.88;95324.78;5033824;28;20049;-72
2021/12/26 02:33:51;;;;;;;13.27;8.43;;;;;;;2.03;88.81;95332.06;5034162;28;20497;-74
2021/12/26 02:36:19;;;;;;;14.38;8.52;;;;;;;2.04;89.09;95322.97;5033956;28;20524;-74
2021/12/26 02:38:45;;;;;;;15.15;8.40;;;;;;;2.06;88.48;95325.34;5033904;28;20622;-75
2021/12/26 02:41:12;;;;;;;12.70;7.90;;;;;;;2.02;88.13;95324.31;5033595;28;20054;-72
2021/12/26 02:43:38;;;;;;;12.73;8.20;;;;;;;1.99;87.89;95335.66;5033992;28;20060;-75
2021/12/26 02:46:07;;;;;;;13.80;8.57;;;;;;;1.96;88.12;95336.22;5033955;28;20053;-74
2021/12/26 02:48:34;;;;;;;13.27;8.00;;;;;;;1.97;88.33;95327.06;5033970;28;20057;-75
2021/12/26 02:51:01;;;;;;;13.98;8.55;;;;;;;1.96;88.40;95330.84;5034047;28;20045;-75
2021/12/26 02:53:30;;;;;;;13.77;8.45;;;;;;;1.91;88.22;95328.22;5033624;28;20035;-74
2021/12/26 02:55:59;;;;;;;14.20;7.95;;;;;;;1.83;87.97;95327.00;5033996;28;20061;-75
2021/12/26 02:58:26;;;;;;;13.52;8.50;;;;;;;1.81;87.80;95324.56;5033385;28;20049;-75
2021/12/26 03:00:55;;;;;;;13.48;7.97;;;;;;;1.75;87.98;95328.41;5033938;28;20052;-75
2021/12/26 03:03:22;;;;;;;13.45;7.97;;;;;;;1.72;88.15;95320.94;5033209;28;20049;-75
2021/12/26 03:05:56;;;;;;;13.23;8.35;;;;;;;1.69;88.32;95320.72;5033731;28;20052;-74
2021/12/26 03:08:22;;;;;;;12.38;7.43;;;;;;;1.70;88.34;95320.41;5033209;28;20436;-75
2021/12/26 03:10:52;;;;;;;12.88;8.18;;;;;;;1.69;88.36;95326.88;5033798;28;20049;-74
2021/12/26 03:13:19;;;;;;;13.77;7.97;;;;;;;1.66;88.11;95338.16;5033084;28;20069;-74
2021/12/26 03:15:45;;;;;;;14.48;8.45;;;;;;;1.68;88.36;95325.28;5033797;28;20519;-75
2021/12/26 03:18:12;;;;;;;14.25;8.30;;;;;;;1.71;88.57;95324.69;5033012;28;20045;-75
2021/12/26 03:20:42;;;;;;;14.98;7.97;;;;;;;1.71;88.51;95329.25;5033632;28;20045;-75
2021/12/26 03:23:11;;;;;;;11.93;7.35;;;;;;;1.69;88.26;95329.56;5032720;28;20052;-74
2021/12/26 03:25:38;;;;;;;12.85;7.55;;;;;;;1.70;88.01;95333.84;5033443;28;20045;-74
2021/12/26 03:28:08;;;;;;;13.57;7.93;;;;;;;1.69;87.78;95337.63;5032861;28;20041;-74
2021/12/26 03:30:36;;;;;;;13.15;7.75;;;;;;;1.67;87.66;95322.88;5033301;28;20068;-74
2021/12/26 03:33:06;;;;;;;11.80;7.13;;;;;;;1.65;87.46;95336.56;5032259;28;20056;-75
2021/12/26 03:35:33;;;;;;;10.93;7.18;;;;;;;1.62;87.49;95331.81;5033299;28;20045;-74
2021/12/26 03:38:01;;;;;;;11.73;7.38;;;;;;;1.66;87.66;95338.16;5032972;28;20049;-73
2021/12/26 03:40:27;;;;;;;11.73;6.95;;;;;;;1.71;87.61;95340.00;5032793;28;20052;-73
2021/12/26 03:42:54;;;;;;;12.77;7.60;;;;;;;1.70;87.42;95344.56;5032717;28;20041;-73
2021/12/26 03:45:22;;;;;;;11.95;6.75;;;;;;;1.74;87.86;95345.59;5032490;28;20518;-73
2021/12/26 03:47:50;;;;;;;12.82;6.90;;;;;;;1.74;87.40;95356.34;5032985;28;20407;-72
2021/12/26 03:50:18;;;;;;;12.55;7.70;;;;;;;1.74;87.42;95350.19;5032616;28;20071;-73
2021/12/26 03:52:45;;;;;;;12.63;7.45;;;;;;;1.72;86.88;95347.78;5032753;28;20053;-73
2021/12/26 03:55:12;;;;;;;11.38;7.55;;;;;;;1.71;86.80;95351.53;5032364;28;20057;-73
2021/12/26 03:57:38;;;;;;;12.05;7.13;;;;;;;1.68;86.39;95354.81;5032632;28;20389;-73
2021/12/26 04:00:08;;;;;;;13.10;7.25;;;;;;;1.68;86.58;95356.69;5032283;28;20053;-73
2021/12/26 04:02:36;;;;;;;12.20;7.65;;;;;;;1.69;86.44;95352.91;5032587;28;20056;-73
2021/12/26 04:05:03;;;;;;;12.77;8.00;;;;;;;1.66;86.19;95354.28;5032274;28;20530;-73
2021/12/26 04:07:30;;;;;;;12.43;7.32;;;;;;;1.68;86.52;95346.75;5032212;28;20052;-73
2021/12/26 04:09:56;;;;;;;14.00;8.40;;;;;;;1.67;86.08;95347.84;5032566;28;20076;-73
2021/12/26 04:12:23;;;;;;;13.40;8.10;;;;;;;1.63;86.04;95352.19;5031925;28;20044;-73
2021/12/26 04:14:49;;;;;;;13.65;8.00;;;;;;;1.62;86.51;95350.59;5032089;28;20042;-73
2021/12/26 04:17:16;;;;;;;14.45;8.65;;;;;;;1.65;86.64;95346.53;5032167;28;20076;-73
2021/12/26 04:19:43;;;;;;;12.80;7.80;;;;;;;1.62;86.83;95342.53;5032207;28;20504;-73
2021/12/26 04:22:10;;;;;;;14.50;8.23;;;;;;;1.59;86.68;95343.09;5031542;28;20053;-73
2021/12/26 04:24:36;;;;;;;12.27;7.55;;;;;;;1.62;86.50;95344.41;5032070;28;20428;-73
2021/12/26 04:27:03;;;;;;;13.65;7.78;;;;;;;1.58;86.37;95351.44;5031548;28;20041;-73
2021/12/26 04:29:30;;;;;;;12.70;7.47;;;;;;;1.62;86.40;95350.59;5032155;28;20045;-73
2021/12/26 04:31:56;;;;;;;11.65;7.05;;;;;;;1.57;85.90;95358.69;5032104;28;20048;-73
2021/12/26 04:34:23;;;;;;;15.95;7.53;;;;;;;1.48;85.86;95358.50;5031191;28;20064;-73
2021/12/26 04:36:51;;;;;;;12.75;7.57;;;;;;;1.49;86.26;95361.97;5031970;28;20053;-73
2021/12/26 04:39:17;;;;;;;13.68;7.88;;;;;;;1.48;86.08;95357.72;5031543;28;20041;-73
2021/12/26 04:41:46;;;;;;;12.30;6.88;;;;;;;1.43;86.21;95349.72;5031960;28;20046;-73
2021/12/26 04:44:12;;;;;;;12.90;7.75;;;;;;;1.46;86.48;95349.94;5030764;28;20038;-73
2021/12/26 04:46:39;;;;;;;12.02;7.15;;;;;;;1.45;86.51;95348.34;5031813;28;20554;-73
2021/12/26 04:49:06;;;;;;;13.50;7.72;;;;;;;1.46;86.66;95357.16;5031402;28;20053;-73
2021/12/26 04:51:32;;;;;;;13.48;8.32;;;;;;;1.47;86.68;95350.75;5031485;28;20503;-73
2021/12/26 04:54:00;;;;;;;14.73;8.52;;;;;;;1.46;86.85;95352.63;5031536;28;20049;-73
2021/12/26 04:56:27;;;;;;;14.95;8.70;;;;;;;1.48;86.66;95357.72;5031363;28;20038;-73
2021/12/26 04:58:53;;;;;;;14.38;8.23;;;;;;;1.46;86.57;95355.31;5031776;28;20046;-73
2021/12/26 05:01:20;;;;;;;14.60;8.15;;;;;;;1.39;86.73;95346.00;5031122;28;20045;-73
2021/12/26 05:03:47;;;;;;;15.32;8.88;;;;;;;1.38;86.84;95352.44;5031648;28;20042;-73
2021/12/26 05:06:13;;;;;;;15.77;9.15;;;;;;;1.33;87.27;95360.53;5030796;28;20410;-73
2021/12/26 05:08:40;;;;;;;15.32;8.57;;;;;;;1.30;87.25;95360.03;5031279;28;20054;-73
2021/12/26 05:11:08;;;;;;;16.23;9.25;;;;;;;1.34;87.34;95362.13;5031061;28;20045;-73
2021/12/26 05:13:34;;;;;;;16.10;9.10;;;;;;;1.36;87.48;95359.97;5040759;28;20052;-73
2021/12/26 05:16:01;;;;;;;17.05;9.40;;;;;;;1.34;87.87;95357.56;5051267;28;20385;-73
2021/12/26 05:18:27;;;;;;;16.70;10.13;;;;;;;1.37;87.67;95356.22;5051000;28;20056;-73
2021/12/26 05:20:56;;;;;;;18.88;9.70;;;;;;;1.37;88.05;95361.59;5051019;28;20047;-74
2021/12/26 05:23:22;;;;;;;15.55;9.57;;;;;;;1.38;87.96;95355.13;5050416;28;20059;-73
2021/12/26 05:25:49;;;;;;;18.40;11.18;;;;;;;1.38;87.61;95357.81;5051231;28;20052;-73
2021/12/26 05:28:17;;;;;;;18.85;10.80;;;;;;;1.38;87.83;95357.81;5050391;28;20132;-73
2021/12/26 05:30:43;;;;;;;17.25;10.13;;;;;;;1.39;87.79;95364.78;5051073;28;20045;-73
2021/12/26 05:33:10;;;;;;;15.75;9.60;;;;;;;1.35;87.67;95361.03;5050624;28;20415;-73
2021/12/26 05:35:36;;;;;;;19.83;11.32;;;;;;;1.35;87.94;95353.00;5050671;28;20041;-73
2021/12/26 05:38:03;;;;;;;18.67;11.00;;;;;;;1.37;87.80;95361.59;5050373;28;20768;-72
2021/12/26 05:40:30;;;;;;;20.40;11.32;;;;;;;1.42;88.01;95364.22;5050944;28;20488;-73
2021/12/26 05:42:56;;;;;;;18.38;11.02;;;;;;;1.42;88.11;95358.84;5046082;28;20439;-73
2021/12/26 05:45:24;;;;;;;18.88;10.93;;;;;;;1.43;88.05;95365.81;5030567;28;20068;-73
2021/12/26 05:47:51;;;;;;;17.13;10.25;;;;;;;1.41;87.86;95367.97;5031113;28;20048;-74
2021/12/26 05:50:20;;;;;;;17.02;9.93;;;;;;;1.40;87.83;95366.38;5030233;28;20423;-73
2021/12/26 05:52:48;;;;;;;16.75;9.68;;;;;;;1.41;88.04;95367.97;5030861;28;20072;-73
2021/12/26 05:55:15;;;;;;;18.38;10.25;;;;;;;1.45;87.82;95358.25;5030273;28;20041;-73
2021/12/26 05:57:42;;;;;;;17.67;11.13;;;;;;;1.40;87.58;95358.31;5034879;28;20038;-73
2021/12/26 06:00:11;;;;;;;17.55;9.93;;;;;;;1.41;87.51;95351.88;5034403;28;20042;-73
2021/12/26 06:02:39;;;;;;;18.58;10.20;;;;;;;1.41;87.68;95357.22;5035017;28;20052;-73
2021/12/26 06:05:06;;;;;;;16.92;9.50;;;;;;;1.41;87.27;95367.97;5033951;28;20660;-73
2021/12/26 06:07:33;;;;;;;17.35;10.05;;;;;;;1.43;87.65;95365.81;5034785;28;20080;-73
2021/12/26 06:09:59;;;;;;;16.17;9.75;;;;;;;1.47;87.49;95367.66;5034694;28;20049;-73
2021/12/26 06:12:26;;;;;;;15.98;9.75;;;;;;;1.47;87.38;95366.84;5034447;28;20051;-73
2021/12/26 06:14:53;;;;;;;19.35;9.82;;;;;;;1.41;86.90;95368.78;5034623;28;20041;-73
2021/12/26 06:17:19;;;;;;;18.27;9.60;;;;;;;1.37;87.22;95364.25;5034032;28;20056;-73
2021/12/26 06:19:47;;;;;;;18.52;11.13;;;;;;;1.38;87.11;95363.19;5034460;28;20084;-74
2021/12/26 06:22:15;;;;;;;16.58;9.30;;;;;;;1.36;87.31;95370.69;5033905;28;20050;-73
2021/12/26 06:24:42;;;;;;;16.08;9.90;;;;;;;1.41;87.49;95362.59;5034337;28;20507;-73
2021/12/26 06:27:09;;;;;;;18.10;10.07;;;;;;;1.40;87.25;95372.53;5033862;28;20052;-72
2021/12/26 06:29:35;;;;;;;16.63;9.50;;;;;;;1.41;86.99;95374.16;5034300;28;20049;-73
2021/12/26 06:32:03;;;;;;;15.07;9.23;;;;;;;1.43;87.19;95376.53;5033776;28;20069;-73
2021/12/26 06:34:29;;;;;;;16.98;9.93;;;;;;;1.36;86.90;95374.19;5033946;28;20045;-73
2021/12/26 06:36:57;;;;;;;16.00;9.55;;;;;;;1.35;86.88;95374.47;5034261;28;20053;-73
2021/12/26 06:39:24;;;;;;;14.57;9.50;;;;;;;1.32;86.84;95380.41;5033576;28;20055;-73
2021/12/26 06:41:50;;;;;;;15.32;9.18;;;;;;;1.32;86.80;95377.72;5034234;28;20397;-73
2021/12/26 06:44:17;;;;;;;15.45;9.27;;;;;;;1.29;86.72;95371.03;5033815;28;20054;-73
2021/12/26 06:46:43;;;;;;;14.82;8.98;;;;;;;1.24;86.47;95374.56;5034165;28;20050;-73
2021/12/26 06:49:10;;;;;;;17.35;10.02;;;;;;;1.23;86.87;95369.47;5033551;28;20053;-73
2021/12/26 06:51:36;;;;;;;19.10;10.05;;;;;;;1.23;86.75;95377.53;5033995;28;20129;-73
2021/12/26 06:54:04;;;;;;;16.65;10.70;;;;;;;1.21;86.92;95379.69;5033575;28;20037;-72
2021/12/26 06:56:31;;;;;;;17.13;9.77;;;;;;;1.18;86.70;95385.63;5033689;28;20045;-74
2021/12/26 06:58:57;;;;;;;18.63;10.02;;;;;;;1.16;86.72;95385.91;5034084;28;20056;-73
2021/12/26 07:01:24;;;;;;;18.08;10.52;;;;;;;1.18;86.84;95391.78;5033272;28;20044;-73
2021/12/26 07:03:51;;;;;;;15.55;9.25;;;;;;;1.16;86.70;95387.78;5033509;28;20041;-73
2021/12/26 07:06:17;;;;;;;15.50;9.10;;;;;;;1.13;86.92;95388.34;5033250;28;20052;-73
2021/12/26 07:08:44;;;;;;;15.73;9.82;;;;;;;1.12;87.12;95398.28;5032844;28;20049;-73
2021/12/26 07:11:11;;;;;;;18.60;10.75;;;;;;;1.12;87.08;95392.91;5033133;28;20520;-73
2021/12/26 07:13:38;;;;;;;16.75;9.65;;;;;;;1.11;87.13;95395.88;5033615;28;20420;-73
2021/12/26 07:16:04;;;;;;;16.92;9.85;;;;;;;1.13;87.31;95397.19;5032923;28;20053;-73
2021/12/26 07:18:31;;;;;;;19.83;11.50;;;;;;;1.17;87.33;95398.22;5033258;28;20052;-73
2021/12/26 07:20:57;;;;;;;17.75;10.50;;;;;;;1.18;87.16;95401.72;5033463;28;20045;-73
2021/12/26 07:23:24;;;;;;;22.38;11.48;;;;;;;1.18;87.43;95402.50;5032837;28;20053;-73
2021/12/26 07:25:51;;;;;;;18.40;10.90;;;;;;;1.24;87.32;95401.38;5033439;28;20076;-73
2021/12/26 07:28:18;;;;;;;18.38;10.68;;;;;;;1.31;87.42;95411.78;5032739;28;20052;-73
2021/12/26 07:30:45;;;;;;;20.05;11.40;;;;;;;1.36;87.43;95405.56;5033398;28;20068;-73
2021/12/26 07:33:11;;;;;;;20.20;12.00;;;;;;;1.35;87.12;95406.66;5032724;28;20049;-73
2021/12/26 07:35:38;;;;;;;19.13;10.80;;;;;;;1.41;86.90;95411.69;5033124;28;20045;-73
2021/12/26 07:38:04;;;;;;;19.98;11.35;;;;;;;1.42;86.71;95410.63;5032572;28;20052;-73
2021/12/26 07:40:31;;;;;;;18.83;10.88;;;;;;;1.38;86.87;95419.50;5033047;28;20045;-72
2021/12/26 07:42:58;;;;;;;17.77;10.55;;;;;;;1.35;86.80;95422.75;5033137;28;20044;-73
2021/12/26 07:45:26;;;;;;;15.93;9.88;;;;;;;1.35;86.99;95422.75;5032541;28;20041;-73
2021/12/26 07:47:52;;;;;;;21.67;11.75;;;;;;;1.40;87.30;95423.50;5032789;28;20046;-73
2021/12/26 07:50:19;;;;;;;23.70;12.40;;;;;;;1.41;87.37;95425.13;5032486;28;20045;-73
2021/12/26 07:52:47;;;;;;;23.20;11.60;;;;;;;1.44;87.20;95427.22;5032939;28;20120;-73
2021/12/26 07:55:13;;;;;;;20.48;11.50;;;;;;;1.40;87.13;95430.75;5032564;28;20045;-73
2021/12/26 07:57:41;;;;;;;19.90;12.00;;;;;;;1.45;86.78;95434.19;5032766;28;20050;-73
2021/12/26 08:00:09;;;;;;;22.27;12.40;;;;;;;1.49;86.84;95434.41;5032258;28;20132;-72
2021/12/26 08:02:38;;;;;;;20.17;11.85;;;;;;;1.50;86.73;95430.66;5032666;28;20156;-73
2021/12/26 08:05:05;;;;;;;22.08;11.82;;;;;;;1.47;86.54;95431.22;5032177;28;20504;-73
2021/12/26 08:07:32;;;;;;;20.75;11.55;;;;;;;1.47;86.95;95431.22;5032548;28;20134;-73
2021/12/26 08:09:59;;;;;;;23.55;12.48;;;;;;;1.49;86.76;95429.06;5032487;28;20041;-73
2021/12/26 08:12:25;;;;;;;24.23;12.68;;;;;;;1.53;87.03;95435.47;5031766;28;20435;-73
2021/12/26 08:14:52;;;;;;;22.25;12.38;;;;;;;1.57;86.93;95436.50;5032495;28;20048;-73
2021/12/26 08:17:18;;;;;;;23.80;12.25;;;;;;;1.54;86.45;95437.06;5031901;28;20053;-73
2021/12/26 08:19:46;;;;;;;21.10;11.90;;;;;;;1.52;86.24;95441.91;5032024;28;20050;-73
2021/12/26 08:22:13;;;;;;;22.95;11.77;;;;;;;1.50;86.16;95436.00;5031497;28;20492;-73
2021/12/26 08:24:39;;;;;;;21.80;12.18;;;;;;;1.51;86.63;95437.59;5032062;28;20049;-73
2021/12/26 08:27:06;;;;;;;19.40;11.35;;;;;;;1.56;86.63;95433.00;5031756;28;20045;-73
2021/12/26 08:29:32;;;;;;;23.90;11.43;;;;;;;1.56;86.64;95429.50;5032079;28;20056;-73
2021/12/26 08:32:00;;;;;;;24.15;12.93;;;;;;;1.53;86.46;95432.78;5031920;28;20046;-73
2021/12/26 08:34:27;;;;;;;23.30;12.88;;;;;;;1.55;86.34;95427.91;5031669;28;20042;-73
2021/12/26 08:37:01;;;;;;;21.42;12.35;;;;;;;1.52;86.35;95431.19;5031721;28;20052;-73
2021/12/26 08:39:27;;;;;;;;;;;;;;;1.54;86.66;95429.00;5032288;28;20065;-73
2021/12/26 08:41:54;;;;;;;20.20;11.23;;;;;;;1.52;86.51;95436.56;5032032;28;19921;-73
2021/12/26 08:44:22;;;;;;;25.10;12.55;;;;;;;1.50;86.17;95436.81;5031396;28;20059;-73
2021/12/26 08:46:48;;;;;;;21.55;11.90;;;;;;;1.52;86.42;95434.66;5031750;28;20072;-73
2021/12/26 08:49:15;;;;;;;26.38;12.23;;;;;;;1.57;86.45;95439.19;5031303;28;20053;-73
2021/12/26 08:51:43;;;;;;;20.95;11.15;;;;;;;1.53;86.28;95436.25;5031715;28;20046;-73
2021/12/26 08:54:11;;;;;;;20.70;10.82;;;;;;;1.59;86.02;95434.31;5031008;28;20626;-73
2021/12/26 08:56:38;;;;;;;23.95;12.35;;;;;;;1.60;86.00;95435.91;5031753;28;20052;-73
2021/12/26 08:59:05;;;;;;;21.65;11.63;;;;;;;1.61;85.95;95436.72;5031273;28;20041;-72
2021/12/26 09:01:32;;;;;;;22.88;12.23;;;;;;;1.59;85.92;95445.06;5031479;28;20057;-73
2021/12/26 09:03:59;;;;;;;26.73;13.25;;;;;;;1.59;85.84;95442.38;5031246;28;20049;-73
2021/12/26 09:06:25;;;;;;;27.15;13.10;;;;;;;1.62;85.22;95443.69;5030854;28;20041;-72
2021/12/26 09:08:52;;;;;;;23.83;12.23;;;;;;;1.58;85.35;95443.47;5031398;28;20049;-73
2021/12/26 09:11:20;;;;;;;26.13;12.23;;;;;;;1.59;85.72;95445.06;5030831;28;20068;-72
2021/12/26 09:13:47;;;;;;;23.60;13.02;;;;;;;1.62;85.56;95447.19;5031561;28;20068;-72
2021/12/26 09:16:14;;;;;;;29.65;12.98;;;;;;;1.68;86.03;95454.09;5030818;28;20053;-72
2021/12/26 09:18:41;;;;;;;26.40;12.80;;;;;;;1.75;86.19;95462.59;5031212;28;20061;-72
2021/12/26 09:21:08;;;;;;;24.05;11.80;;;;;;;1.74;86.03;95463.69;5030819;28;20053;-72
2021/12/26 09:23:35;;;;;;;25.52;13.63;;;;;;;1.77;86.15;95463.13;5031263;28;20058;-73
2021/12/26 09:26:01;;;;;;;24.90;12.32;;;;;;;1.80;86.42;95457.19;5031267;28;20060;-72
2021/12/26 09:28:30;;;;;;;25.65;11.75;;;;;;;1.80;86.13;95461.75;5030915;28;20041;-72
2021/12/26 09:30:57;;;;;;;24.35;12.73;;;;;;;1.79;85.82;95463.66;5030553;28;20053;-72
2021/12/26 09:33:24;;;;;;;23.10;12.55;;;;;;;1.83;85.99;95466.56;5030592;28;20048;-73
2021/12/26 09:35:51;;;;;;;22.50;12.45;;;;;;;1.82;85.65;95464.94;5030885;28;20049;-73
2021/12/26 09:38:18;;;;;;;25.95;12.48;;;;;;;1.88;85.43;95468.38;5030727;28;20298;-73
2021/12/26 09:40:46;;;;;;;24.80;12.40;;;;;;;1.86;85.37;95471.34;5031194;28;20050;-73
2021/12/26 09:43:13;;;;;;;24.58;13.07;;;;;;;1.91;85.61;95467.81;5030779;28;20420;-73
2021/12/26 09:45:41;;;;;;;26.77;13.23;;;;;;;1.96;85.83;95470.47;5031004;28;20092;-73
2021/12/26 09:48:07;;;;;;;26.63;13.00;;;;;;;2.03;85.97;95468.22;5030461;28;20416;-72
2021/12/26 09:50:34;;;;;;;25.77;14.23;;;;;;;2.03;85.21;95470.91;5031078;28;20053;-73
2021/12/26 09:53:01;;;;;;;34.33;15.88;;;;;;;2.05;85.14;95460.69;5031073;28;20053;-72
2021/12/26 09:55:29;;;;;;;34.13;16.58;;;;;;;2.11;85.16;95469.50;5030540;28;20041;-73
2021/12/26 09:57:56;;;;;;;32.53;15.30;;;;;;;2.08;84.94;95468.16;5031057;28;20048;-72
2021/12/26 10:00:28;;;;;;;25.17;12.70;;;;;;;2.08;84.72;95458.22;5030666;28;20053;-72
2021/12/26 10:03:15;;;;;;;26.15;13.98;;;;;;;2.06;84.63;95470.34;5030993;28;20042;-72
2021/12/26 10:06:13;;;;;;;31.85;13.27;;;;;;;2.11;85.33;95456.88;5030853;28;20053;-74
2021/12/26 10:08:55;;;;;;;35.50;16.13;;;;;;;2.15;85.57;95463.28;5030625;28;20041;-74
2021/12/26 10:11:24;;;;;;;40.80;17.20;;;;;;;2.16;85.64;95456.81;5030672;28;20056;-74
2021/12/26 10:13:54;;;;;;;47.88;18.38;;;;;;;2.13;85.26;95453.88;5030930;28;20408;-74
2021/12/26 10:16:22;;;;;;;40.28;18.58;;;;;;;2.09;85.24;95453.69;5030207;28;20504;-72
2021/12/26 10:18:50;;;;;;;31.58;15.30;;;;;;;2.07;85.57;95445.88;5030738;28;20049;-72
2021/12/26 10:21:23;;;;;;;34.70;16.15;;;;;;;2.08;86.07;95444.00;5030331;28;20385;-72
2021/12/26 10:23:51;;;;;;;34.05;15.60;;;;;;;2.11;86.02;95446.13;5030628;28;20412;-72
2021/12/26 10:26:21;;;;;;;29.15;14.05;;;;;;;2.09;86.13;95443.75;5030381;28;20046;-72
2021/12/26 10:29:14;;;;;;;31.90;14.10;;;;;;;2.05;85.82;95439.22;5030850;28;20065;-72
2021/12/26 10:31:48;;;;;;;28.13;13.95;;;;;;;2.07;85.91;95445.09;5030269;28;20041;-72
2021/12/26 10:34:19;;;;;;;29.83;14.60;;;;;;;2.17;86.53;95444.19;5030051;28;20508;-72
2021/12/26 10:36:48;;;;;;;33.28;15.32;;;;;;;2.22;86.29;95442.22;5030440;28;20046;-72
2021/12/26 10:39:17;;;;;;;31.15;15.85;;;;;;;2.24;86.50;95434.69;5030344;28;20385;-72
2021/12/26 10:41:47;;;;;;;32.08;14.85;;;;;;;2.26;86.34;95442.47;5030652;28;20394;-72
2021/12/26 10:44:29;;;;;;;28.70;14.50;;;;;;;2.30;86.73;95438.94;5048090;28;20053;-72
2021/12/26 10:46:58;;;;;;;31.35;14.27;;;;;;;2.34;86.82;95441.81;5054102;28;20048;-72
2021/12/26 10:49:29;;;;;;;29.63;14.00;;;;;;;2.32;86.48;95436.72;5053693;28;20048;-72
2021/12/26 10:51:56;;;;;;;30.02;14.30;;;;;;;2.35;86.14;95435.38;5053972;28;20053;-73
2021/12/26 10:54:25;;;;;;;30.63;14.95;;;;;;;2.39;86.71;95436.38;5053344;28;20060;-72
2021/12/26 10:57:13;;;;;;;27.35;14.32;;;;;;;2.47;86.73;95437.63;5053836;28;20056;-72
2021/12/26 10:59:41;;;;;;;28.85;15.70;;;;;;;2.48;87.38;95433.84;5053812;28;20060;-72
2021/12/26 11:02:09;;;;;;;28.38;14.95;;;;;;;2.51;87.32;95438.66;5053294;28;20041;-72
2021/12/26 11:04:38;;;;;;;33.47;16.65;;;;;;;2.51;87.13;95433.28;5053766;28;20041;-72
2021/12/26 11:07:08;;;;;;;38.03;16.92;;;;;;;2.51;87.10;95436.78;5053171;28;20045;-72
2021/12/26 11:09:35;;;;;;;29.50;15.30;;;;;;;2.57;86.01;95440.19;5053735;28;20135;-72
2021/12/26 11:12:05;;;;;;;28.48;15.23;;;;;;;2.56;85.59;95441.28;5053683;28;20045;-72
2021/12/26 11:14:31;;;;;;;29.42;14.65;;;;;;;2.55;85.70;95435.09;5035861;28;20125;-72
2021/12/26 11:16:58;;;;;;;27.48;14.52;;;;;;;2.53;85.55;95434.59;5033503;28;20045;-72
2021/12/26 11:19:43;;;;;;;26.23;14.18;;;;;;;2.50;85.75;95434.34;5033107;28;20072;-73
2021/12/26 11:22:10;;;;;;;29.75;15.60;;;;;;;2.50;85.96;95439.72;5032955;28;20393;-72
2021/12/26 11:24:37;;;;;;;30.90;15.25;;;;;;;2.46;85.86;95430.66;5033364;28;20056;-72
2021/12/26 11:27:04;;;;;;;27.67;14.02;;;;;;;2.44;85.91;95436.31;5033053;28;20058;-72
2021/12/26 11:29:31;;;;;;;29.38;14.90;;;;;;;2.41;85.80;95422.69;5033510;28;20065;-72
2021/12/26 11:31:58;;;;;;;27.67;14.70;;;;;;;2.47;85.99;95429.56;5033227;28;20050;-72
2021/12/26 11:34:26;;;;;;;29.52;15.13;;;;;;;2.42;85.99;95429.66;5032892;28;20049;-72